Cozumel, Mexico

7:22 AM EST on August 04, 2015 (GMT -0500)
APRSWXNET | | Change Station
CLOSE
Current Station
Personal Weather Station
Location: Cozumel,
Elevation: 36 ft
Nearby Weather Stations

Elev 36 ft 20.51 °N, 86.93 °W | Updated 26 minutes ago

Scattered Clouds
Scattered Clouds
79 °F
Feels Like 83 °F
N
3
Wind Variable Wind from ESE
Gusts 6.0 mph

Today
High -- | Low -- °F
--% Chance of Precip.
Yesterday
High -- | Low -- °F
Precip. -- in
6:23 AM 7:24 PM
Waning Gibbous, 78% visible
Pressure 29.97 in
Visibility 7.0 miles
Clouds Few 1500 ft
Scattered Clouds 10000 ft
Heat Index 83 °F
Dew Point 75 °F
Humidity 89%
Rainfall in
Snow Depth Not available.
UV 0 out of 12
Pollen Not available.
Air Quality Not available.
Flu Activity Not available.
METAR MMUN 041146Z 08005KT 7SM FEW015 SCT100 28/25 A2997 RMK SLP148 53011 916 8/530 CS

More Conditions Fewer Conditions

Pressure 29.97 in
Visibility 7.0 miles
Clouds Few 1500 ft
Scattered Clouds 10000 ft
Heat Index 83 °F
Dew Point 75 °F
Humidity 89%
Rainfall in
Snow Depth Not available.
UV 0 out of 12
Pollen Not available.
Air Quality Not available.
Flu Activity Not available.
METAR MMUN 041146Z 08005KT 7SM FEW015 SCT100 28/25 A2997 RMK SLP148 53011 916 8/530 CS

More Conditions Fewer Conditions

10-Day Weather Forecast

×

Almanac

Astronomy

Aug. 04, 2015 Rise Set
Actual Time
Civil Twilight
Nautical Twilight
Astronomical Twilight
Moon
Length of Visible Light
Length of Day
Tomorrow will be .
, % of the Moon is Illuminated

Today's Extremes

Country Highs Country Lows

Community

WunderPhotos

Upload Photos

1,843,910 photos uploaded!

WunderBlogs® & News

Nearby

Air Quality

  Air Quality AQ Index Pollutant
Not available.

Snow Depth

Station Depth Elevation

Earthquake Activity

City Distance Mag. Time & Date
Minimum magnitude displayed is 2.5.

Coastal Water Temperatures

Place Temperature

Stations

Nearby Weather Stations

Station Location Temp. Windchill Dew Point Humidity Wind Precip. Elev Updated Type